Time;durP1;ratioP1;P1;durP2;ratioP2;P2;SDS_P1;SDS_P2;PMS_P1;PMS_P2;Temp;Humidity;BMP_temperature;BMP_pressure;BME280_temperature;BME280_humidity;BME280_pressure;Samples;Min_cycle;Max_cycle;Signal;HPM_P1;HPM_P2
2022/02/14 00:00:34;;;;;;;9.40;6.15;;;4.40;99.90;;;;;;5028589;28;20204;-84
2022/02/14 00:26:53;;;;;;;;;;;;;;;;;;;;;
2022/02/14 01:19:14;;;;;;;10.18;6.15;;;4.40;99.90;;;;;;4794755;29;20251;-87
2022/02/14 01:54:50;;;;;;;;;;;;;;;;;;;;;
2022/02/14 02:28:46;;;;;;;7.18;5.35;;;3.80;99.90;;;;;;5043296;22;20247;-81
2022/02/14 02:31:12;;;;;;;7.38;4.75;;;3.50;99.90;;;;;;5020462;28;20209;-82
2022/02/14 02:33:39;;;;;;;6.78;4.63;;;3.60;12.70;;;;;;5019971;28;20193;-82
2022/02/14 02:36:06;;;;;;;5.55;4.97;;;3.60;1.00;;;;;;5004261;28;20228;-83
2022/02/14 02:38:32;;;;;;;7.97;5.40;;;3.60;43.20;;;;;;5000493;28;20244;-82
2022/02/14 02:40:59;;;;;;;4.53;4.10;;;3.60;1.00;;;;;;5000571;28;20228;-82
2022/02/14 02:43:28;;;;;;;14.10;5.65;;;3.50;1.00;;;;;;5000132;28;20201;-82
2022/02/14 02:45:57;;;;;;;6.25;4.10;;;3.50;1.00;;;;;;4999295;28;20236;-82
2022/02/14 02:48:24;;;;;;;5.88;4.93;;;3.50;1.00;;;;;;5002167;28;20237;-82
2022/02/14 02:51:03;;;;;;;5.80;4.80;;;3.60;1.00;;;;;;4998611;28;20201;-82
2022/02/14 02:53:30;;;;;;;5.05;4.60;;;3.60;1.00;;;;;;5010053;28;20199;-81
2022/02/14 02:55:57;;;;;;;5.15;4.63;;;3.60;1.00;;;;;;5007409;28;20228;-82
2022/02/14 02:58:24;;;;;;;6.82;4.50;;;3.70;1.00;;;;;;4999563;28;20260;-82
2022/02/14 03:00:51;;;;;;;11.35;5.53;;;3.80;99.90;;;;;;4999350;28;20212;-82
2022/02/14 03:03:19;;;;;;;6.20;4.93;;;3.80;99.90;;;;;;4999221;28;20232;-82
2022/02/14 03:05:46;;;;;;;5.43;4.60;;;3.70;99.90;;;;;;4999102;28;20259;-82
2022/02/14 03:08:12;;;;;;;6.13;4.72;;;3.60;99.90;;;;;;4998938;28;20595;-82
2022/02/14 03:10:39;;;;;;;5.72;4.97;;;3.60;99.90;;;;;;4998775;28;20267;-82
2022/02/14 03:13:07;;;;;;;5.70;5.10;;;3.60;99.90;;;;;;4998832;28;20205;-82
2022/02/14 03:15:34;;;;;;;7.32;4.45;;;3.60;99.90;;;;;;4998383;28;20236;-82
2022/02/14 03:18:01;;;;;;;7.15;4.10;;;3.70;99.90;;;;;;4998471;28;20641;-82
2022/02/14 03:20:29;;;;;;;7.18;4.63;;;3.70;99.90;;;;;;4997930;28;20240;-82
2022/02/14 03:22:55;;;;;;;6.18;4.45;;;3.80;99.90;;;;;;4998038;28;20240;-82
2022/02/14 03:25:22;;;;;;;8.68;4.35;;;3.90;99.90;;;;;;4998171;28;20212;-82
2022/02/14 03:27:49;;;;;;;7.15;4.82;;;3.80;99.90;;;;;;4998061;28;20260;-82
2022/02/14 03:30:15;;;;;;;4.75;4.05;;;3.90;99.90;;;;;;4998772;28;20684;-83
2022/02/14 03:32:42;;;;;;;8.48;4.75;;;3.80;99.90;;;;;;4998980;28;20243;-82
2022/02/14 03:35:09;;;;;;;5.72;4.60;;;3.80;99.90;;;;;;4998670;28;20553;-82
2022/02/14 03:37:37;;;;;;;6.53;4.35;;;3.80;99.90;;;;;;4998621;28;20625;-82
2022/02/14 03:40:04;;;;;;;6.72;4.78;;;3.90;99.90;;;;;;4997978;28;20252;-82
2022/02/14 03:42:31;;;;;;;5.60;4.35;;;3.90;99.90;;;;;;4997755;28;20272;-82
2022/02/14 03:44:57;;;;;;;5.32;4.55;;;3.90;99.90;;;;;;4998812;28;20205;-82
2022/02/14 03:47:24;;;;;;;4.28;3.85;;;3.70;99.90;;;;;;4997663;28;20628;-82
2022/02/14 03:49:50;;;;;;;6.95;4.25;;;3.70;99.90;;;;;;4998181;28;20228;-83
2022/02/14 03:52:17;;;;;;;5.60;4.90;;;3.70;99.90;;;;;;4998366;28;20201;-82
2022/02/14 03:54:45;;;;;;;10.07;5.18;;;3.70;99.90;;;;;;4998314;28;20611;-81
2022/02/14 03:57:11;;;;;;;5.90;4.70;;;3.70;99.90;;;;;;5004053;28;20229;-82
2022/02/14 03:59:38;;;;;;;6.05;4.88;;;3.80;99.90;;;;;;5000881;28;20206;-82
2022/02/14 04:02:05;;;;;;;7.90;5.55;;;3.80;99.90;;;;;;4998754;28;20217;-82
2022/02/14 04:04:32;;;;;;;7.32;4.75;;;3.80;99.90;;;;;;4998444;28;20212;-82
2022/02/14 04:06:58;;;;;;;7.43;5.32;;;3.80;99.90;;;;;;4997649;28;20256;-82
2022/02/14 04:09:25;;;;;;;6.47;4.65;;;3.70;99.90;;;;;;4997510;28;20227;-82
2022/02/14 04:11:53;;;;;;;8.65;4.72;;;3.90;99.90;;;;;;4997618;28;20236;-82
2022/02/14 04:14:19;;;;;;;5.57;4.25;;;4.00;99.90;;;;;;4996878;28;20240;-82
2022/02/14 04:16:46;;;;;;;7.70;4.28;;;3.70;99.90;;;;;;4997495;28;20248;-82
2022/02/14 04:19:13;;;;;;;10.45;5.20;;;3.80;99.90;;;;;;4998108;28;20205;-81
2022/02/14 04:21:39;;;;;;;6.35;4.55;;;3.80;99.90;;;;;;4998667;28;20224;-82
2022/02/14 04:24:06;;;;;;;6.50;5.00;;;3.90;99.90;;;;;;4999463;28;20288;-82
2022/02/14 04:26:32;;;;;;;4.60;4.20;;;3.90;99.90;;;;;;4999972;28;20244;-82
2022/02/14 04:29:00;;;;;;;5.60;4.07;;;4.00;99.90;;;;;;4999347;28;20186;-82
2022/02/14 04:31:28;;;;;;;7.72;4.47;;;3.90;99.90;;;;;;5000860;28;20205;-81
2022/02/14 04:33:55;;;;;;;5.88;4.32;;;4.00;99.90;;;;;;5001394;28;20197;-81
2022/02/14 04:36:21;;;;;;;4.95;3.72;;;4.00;99.90;;;;;;5009650;28;20208;-80
2022/02/14 04:38:48;;;;;;;4.68;4.18;;;4.00;88.90;;;;;;5008929;28;20223;-82
2022/02/14 04:41:14;;;;;;;6.68;4.90;;;4.10;81.00;;;;;;5009751;28;20212;-80
2022/02/14 04:43:41;;;;;;;4.78;4.28;;;4.10;52.90;;;;;;5007592;28;20212;-80
2022/02/14 04:46:08;;;;;;;5.03;4.47;;;4.20;60.70;;;;;;5009184;28;20201;-79
2022/02/14 04:48:35;;;;;;;5.55;4.72;;;4.10;47.50;;;;;;5011455;28;20228;-82
2022/02/14 04:51:02;;;;;;;4.05;3.75;;;4.10;25.60;;;;;;5014004;28;20201;-80
2022/02/14 04:53:28;;;;;;;5.40;3.97;;;4.20;31.60;;;;;;5008895;28;20189;-80
2022/02/14 04:55:55;;;;;;;6.13;4.18;;;4.20;99.90;;;;;;5010323;28;20209;-82
2022/02/14 04:58:21;;;;;;;5.65;4.13;;;4.10;21.90;;;;;;5007102;28;20228;-82
2022/02/14 05:00:48;;;;;;;9.82;4.03;;;4.10;12.00;;;;;;5004713;28;20205;-82
2022/02/14 05:03:16;;;;;;;6.32;3.90;;;4.20;4.40;;;;;;5009511;28;20205;-82
2022/02/14 05:05:42;;;;;;;5.00;4.60;;;3.70;50.40;;;;;;5013065;28;20205;-82
2022/02/14 05:08:09;;;;;;;5.85;4.22;;;4.20;3.10;;;;;;5005797;28;20232;-82
2022/02/14 05:10:35;;;;;;;5.60;4.45;;;4.20;4.30;;;;;;4998888;28;20568;-82
2022/02/14 05:13:02;;;;;;;5.85;4.30;;;4.10;8.10;;;;;;5001513;28;20235;-83
2022/02/14 05:15:29;;;;;;;6.13;4.45;;;4.10;8.50;;;;;;5011675;28;20199;-79
2022/02/14 05:17:55;;;;;;;9.18;5.13;;;4.00;11.30;;;;;;5022042;28;20208;-80
2022/02/14 05:20:23;;;;;;;6.70;4.70;;;3.90;19.10;;;;;;5021786;28;20436;-81
2022/02/14 05:22:50;;;;;;;7.18;5.05;;;3.90;19.10;;;;;;5019483;28;20234;-82
2022/02/14 05:25:16;;;;;;;7.50;6.30;;;3.90;13.30;;;;;;5004226;28;20248;-81
2022/02/14 05:27:43;;;;;;;5.00;4.60;;;3.90;22.80;;;;;;5003443;28;20232;-82
2022/02/14 05:30:11;;;;;;;7.40;5.38;;;3.80;29.20;;;;;;5004241;28;20205;-82
2022/02/14 05:32:37;;;;;;;7.32;5.85;;;3.80;32.10;;;;;;5004847;28;20259;-82
2022/02/14 05:35:05;;;;;;;6.35;5.78;;;3.70;30.40;;;;;;5004252;28;20208;-82
2022/02/14 05:37:33;;;;;;;7.15;5.25;;;3.80;31.30;;;;;;5003344;28;20307;-82
2022/02/14 05:39:59;;;;;;;9.55;5.72;;;3.70;29.20;;;;;;5003017;28;20557;-82
2022/02/14 05:42:27;;;;;;;6.40;5.43;;;3.70;37.10;;;;;;5002616;28;20201;-82
2022/02/14 05:44:53;;;;;;;9.00;6.35;;;3.70;31.10;;;;;;5002512;28;20463;-82
2022/02/14 05:47:20;;;;;;;5.40;4.90;;;3.70;37.30;;;;;;5003248;28;20233;-82
2022/02/14 05:49:47;;;;;;;9.88;6.18;;;3.80;96.80;;;;;;5003320;28;20694;-82
2022/02/14 05:52:13;;;;;;;8.40;6.18;;;3.70;39.60;;;;;;5002267;28;20204;-81
2022/02/14 05:54:41;;;;;;;7.20;6.43;;;3.60;37.60;;;;;;5003364;28;20240;-82
2022/02/14 05:57:10;;;;;;;7.97;6.05;;;3.60;35.20;;;;;;5002107;28;20217;-82
2022/02/14 05:59:37;;;;;;;11.43;8.85;;;3.60;42.00;;;;;;5002908;28;20288;-82
2022/02/14 06:02:04;;;;;;;7.57;5.28;;;3.60;50.00;;;;;;5003026;28;20209;-82
2022/02/14 06:04:31;;;;;;;10.65;5.40;;;3.60;59.90;;;;;;5004588;28;20264;-82
2022/02/14 06:06:57;;;;;;;6.75;5.15;;;3.60;58.90;;;;;;5002538;28;20225;-82
2022/02/14 06:09:26;;;;;;;7.90;6.43;;;3.60;48.90;;;;;;5001842;28;20240;-82
2022/02/14 06:11:54;;;;;;;4.95;4.45;;;3.60;53.70;;;;;;5001809;28;20676;-82
2022/02/14 06:14:21;;;;;;;7.03;5.53;;;3.60;59.10;;;;;;5001680;28;20314;-82
2022/02/14 06:16:47;;;;;;;6.68;5.70;;;3.60;52.10;;;;;;5002210;28;20279;-82
2022/02/14 06:19:14;;;;;;;7.63;5.88;;;3.50;52.20;;;;;;5001265;28;20217;-82
2022/02/14 06:21:41;;;;;;;7.60;6.00;;;3.60;55.00;;;;;;5006423;28;20570;-82
2022/02/14 06:24:07;;;;;;;6.90;5.35;;;3.50;54.00;;;;;;5001394;28;20263;-83
2022/02/14 06:26:34;;;;;;;10.55;6.32;;;3.40;99.90;;;;;;5002392;28;20815;-82
2022/02/14 06:29:03;;;;;;;10.07;7.40;;;3.50;65.20;;;;;;5001986;28;20217;-83
2022/02/14 06:31:30;;;;;;;11.25;6.32;;;3.40;73.10;;;;;;5002506;28;20201;-81
2022/02/14 06:33:58;;;;;;;9.52;6.30;;;3.50;59.30;;;;;;5001573;28;20205;-81
2022/02/14 06:36:26;;;;;;;8.93;6.45;;;3.50;99.90;;;;;;5002597;28;20676;-82
2022/02/14 06:39:26;;;;;;;7.25;6.22;;;3.90;99.90;;;;;;5003365;28;20232;-83
2022/02/14 06:41:53;;;;;;;9.15;5.35;;;;;;;;;;5001289;28;20193;-83
2022/02/14 06:44:21;;;;;;;8.88;5.85;;;3.50;52.00;;;;;;5000661;28;20738;-83
2022/02/14 06:46:49;;;;;;;8.00;5.15;;;3.60;52.10;;;;;;5001680;28;20257;-82
2022/02/14 06:49:15;;;;;;;6.55;5.72;;;3.60;53.70;;;;;;5000890;28;20267;-83
2022/02/14 06:51:42;;;;;;;10.25;6.25;;;3.50;99.90;;;;;;5000624;28;20205;-81
2022/02/14 06:54:09;;;;;;;8.45;6.25;;;3.70;40.50;;;;;;5001316;28;20205;-81
2022/02/14 06:56:35;;;;;;;11.68;5.75;;;3.70;99.90;;;;;;5008536;28;20208;-79
2022/02/14 06:59:02;;;;;;;7.13;5.70;;;3.70;51.10;;;;;;5007904;28;20208;-82
2022/02/14 07:01:30;;;;;;;10.15;6.35;;;3.70;45.90;;;;;;5001700;28;20572;-82
2022/02/14 07:03:56;;;;;;;9.35;6.07;;;3.70;64.20;;;;;;5002323;28;20244;-82
2022/02/14 07:06:23;;;;;;;5.85;5.35;;;3.90;99.90;;;;;;5001933;28;20233;-82
2022/02/14 07:08:50;;;;;;;8.63;5.93;;;3.70;54.80;;;;;;5004456;28;20702;-82
2022/02/14 07:11:16;;;;;;;10.38;6.85;;;3.80;43.50;;;;;;5002106;28;20224;-81
2022/02/14 07:13:43;;;;;;;15.20;7.05;;;3.80;51.40;;;;;;5002576;28;20201;-81
2022/02/14 07:16:10;;;;;;;10.65;6.22;;;3.80;48.50;;;;;;5001634;28;20215;-81
2022/02/14 07:18:40;;;;;;;7.45;6.65;;;3.80;32.60;;;;;;5001279;28;20233;-82
2022/02/14 07:21:07;;;;;;;7.90;6.18;;;3.80;31.30;;;;;;5000308;28;20200;-82
2022/02/14 07:23:33;;;;;;;5.53;4.97;;;3.80;33.50;;;;;;5002283;28;20209;-82
2022/02/14 07:26:00;;;;;;;7.53;6.40;;;3.80;30.70;;;;;;5002314;28;20200;-83
2022/02/14 07:28:27;;;;;;;11.00;6.88;;;3.80;30.00;;;;;;5001947;28;20229;-82
2022/02/14 07:30:54;;;;;;;8.50;6.00;;;3.90;25.80;;;;;;5003046;28;20220;-81
2022/02/14 07:33:21;;;;;;;13.07;5.82;;;4.00;28.20;;;;;;5001974;28;20212;-82
2022/02/14 07:35:49;;;;;;;6.55;5.30;;;4.00;19.40;;;;;;5000653;28;20196;-80
2022/02/14 07:38:16;;;;;;;5.80;4.88;;;4.00;13.40;;;;;;5000333;28;20291;-81
2022/02/14 07:40:45;;;;;;;10.00;6.15;;;4.10;99.90;;;;;;5000103;28;20201;-81
2022/02/14 07:43:12;;;;;;;5.88;5.38;;;4.10;7.80;;;;;;5000436;28;20289;-82
2022/02/14 07:45:38;;;;;;;6.93;6.22;;;4.20;1.90;;;;;;4999943;28;20224;-82
2022/02/14 07:48:05;;;;;;;9.88;5.68;;;4.20;3.50;;;;;;5000227;28;20663;-82
2022/02/14 07:50:32;;;;;;;9.43;6.55;;;4.20;4.60;;;;;;5000427;28;20213;-82
2022/02/14 07:53:00;;;;;;;7.70;5.95;;;4.20;4.80;;;;;;4999860;28;20746;-81
2022/02/14 07:55:27;;;;;;;8.80;6.35;;;4.30;1.00;;;;;;5002793;28;20634;-80
2022/02/14 07:57:54;;;;;;;6.65;5.15;;;4.30;1.00;;;;;;5000885;28;20801;-81
2022/02/14 08:00:22;;;;;;;6.72;5.47;;;4.40;1.00;;;;;;5004622;28;20205;-81
2022/02/14 08:02:49;;;;;;;7.82;5.10;;;4.50;1.00;;;;;;5005398;28;20209;-81
2022/02/14 08:05:15;;;;;;;6.75;5.15;;;4.50;1.00;;;;;;5018863;28;20212;-81
2022/02/14 08:07:42;;;;;;;6.50;5.55;;;4.60;99.90;;;;;;5018562;28;20264;-82
2022/02/14 08:10:10;;;;;;;8.05;5.40;;;4.50;1.00;;;;;;5018439;28;20185;-81
2022/02/14 08:12:39;;;;;;;7.80;5.40;;;4.60;11.40;;;;;;5018445;28;20200;-80
2022/02/14 08:15:07;;;;;;;11.38;6.57;;;4.60;1.00;;;;;;5008174;28;20205;-81
2022/02/14 08:17:34;;;;;;;8.07;5.45;;;4.70;1.00;;;;;;5005306;28;20239;-82
2022/02/14 08:20:01;;;;;;;8.10;5.75;;;4.70;1.00;;;;;;5004748;28;20209;-81
2022/02/14 08:22:27;;;;;;;6.53;5.05;;;4.80;1.00;;;;;;5001608;28;20225;-81
2022/02/14 08:24:54;;;;;;;5.68;5.18;;;4.90;1.00;;;;;;5001296;28;20216;-81
2022/02/14 08:27:54;;;;;;;10.88;6.30;;;5.10;99.90;;;;;;5034210;22;20220;-86
2022/02/14 08:31:11;;;;;;;8.02;5.35;;;5.00;1.00;;;;;;5009179;28;20213;-87
2022/02/14 08:34:16;;;;;;;;;;;;;;;;;;;;;
2022/02/14 08:36:44;;;;;;;10.02;6.20;;;;;;;;;;5008955;28;20197;-87
2022/02/14 08:46:04;;;;;;;6.10;5.50;;;5.40;1.00;;;;;;5014751;28;20294;-86
2022/02/14 08:51:37;;;;;;;7.15;5.80;;;5.70;1.00;;;;;;5018372;28;20200;-85
2022/02/14 08:54:33;;;;;;;8.55;5.53;;;6.00;99.90;;;;;;5018530;28;20185;-86
2022/02/14 08:57:14;;;;;;;6.60;5.90;;;5.90;1.00;;;;;;5018256;28;20220;-84
2022/02/14 09:07:59;;;;;;;6.30;4.30;;;6.50;1.00;;;;;;5012068;28;20269;-86
2022/02/14 09:10:40;;;;;;;5.63;4.60;;;6.70;7.50;;;;;;4984911;28;20206;-86
2022/02/14 09:13:54;;;;;;;6.13;4.50;;;7.50;1.00;;;;;;5005971;28;20260;-86
2022/02/14 09:19:42;;;;;;;6.50;3.70;;;7.10;1.00;;;;;;5095098;22;20220;-85
2022/02/14 09:22:35;;;;;;;4.47;4.07;;;7.10;1.00;;;;;;5013311;28;20236;-87
2022/02/14 09:25:23;;;;;;;;;;;;;;;;;;;;;
2022/02/14 09:31:04;;;;;;;3.83;3.42;;;7.50;1.00;;;;;;4999711;28;20620;-88
2022/02/14 09:33:31;;;;;;;4.90;3.85;;;6.90;1.00;;;;;;5024508;22;20233;-81
2022/02/14 09:35:59;;;;;;;5.88;5.18;;;7.50;1.00;;;;;;5010579;28;20209;-82
2022/02/14 09:38:26;;;;;;;6.65;3.70;;;7.60;1.00;;;;;;5013476;28;20201;-80
2022/02/14 09:40:53;;;;;;;3.78;3.47;;;7.60;1.00;;;;;;5012012;28;20609;-79
2022/02/14 09:43:20;;;;;;;4.05;3.53;;;7.70;1.00;;;;;;5009139;28;20221;-79
2022/02/14 09:45:47;;;;;;;5.93;3.70;;;7.80;1.00;;;;;;5014922;28;20213;-82
2022/02/14 09:48:15;;;;;;;6.25;4.10;;;7.80;1.00;;;;;;5005915;28;20225;-82
2022/02/14 09:50:43;;;;;;;3.80;3.40;;;7.80;1.00;;;;;;5004602;28;20668;-82
2022/02/14 09:53:15;;;;;;;4.20;3.67;;;7.70;1.00;;;;;;5001251;28;20225;-82
2022/02/14 09:55:43;;;;;;;5.43;3.88;;;7.90;1.00;;;;;;5001484;28;20619;-80
2022/02/14 09:58:10;;;;;;;7.82;3.33;;;8.00;1.00;;;;;;5001394;28;20209;-82
2022/02/14 10:00:37;;;;;;;6.53;4.30;;;8.10;1.00;;;;;;5005600;28;20232;-82
2022/02/14 10:03:15;;;;;;;4.68;3.38;;;8.10;1.00;;;;;;5005707;28;20474;-80
2022/02/14 10:05:44;;;;;;;4.40;3.50;;;8.20;1.00;;;;;;5005605;28;20201;-81
2022/02/14 10:08:18;;;;;;;4.95;3.60;;;8.30;1.00;;;;;;5004473;28;20523;-82
2022/02/14 10:10:44;;;;;;;3.57;3.30;;;8.40;1.00;;;;;;5004046;28;20656;-80
2022/02/14 10:13:11;;;;;;;4.07;3.77;;;8.40;1.00;;;;;;5006176;28;20476;-81
2022/02/14 10:15:50;;;;;;;3.70;3.40;;;8.40;1.00;;;;;;5004413;28;20423;-80
2022/02/14 10:18:26;;;;;;;9.53;3.60;;;8.40;1.00;;;;;;5004380;28;20477;-80
2022/02/14 10:21:09;;;;;;;3.93;3.07;;;8.60;1.00;;;;;;5004003;28;20432;-81
2022/02/14 10:23:37;;;;;;;6.37;3.70;;;8.70;1.00;;;;;;5002990;28;20523;-82
2022/02/14 10:26:05;;;;;;;6.18;3.60;;;8.70;1.00;;;;;;5003560;28;20452;-82
2022/02/14 10:28:32;;;;;;;6.07;2.90;;;8.90;1.00;;;;;;5004073;28;20702;-82
2022/02/14 10:31:02;;;;;;;4.20;3.85;;;8.80;1.00;;;;;;5004607;28;20459;-81
2022/02/14 10:33:53;;;;;;;4.30;3.33;;;8.90;1.00;;;;;;5004590;28;20229;-81
2022/02/14 10:36:30;;;;;;;5.50;4.27;;;9.00;1.00;;;;;;5005992;28;20440;-82
2022/02/14 10:39:11;;;;;;;4.73;3.23;;;9.30;1.00;;;;;;5003753;28;20447;-82
2022/02/14 10:41:39;;;;;;;5.20;3.57;;;9.40;1.00;;;;;;5004280;28;20472;-80
2022/02/14 10:44:11;;;;;;;3.40;3.10;;;9.30;1.00;;;;;;5002960;28;20479;-81
2022/02/14 10:46:39;;;;;;;5.53;4.63;;;9.30;1.00;;;;;;5003338;28;20983;-81
2022/02/14 10:49:06;;;;;;;5.53;4.10;;;9.40;1.00;;;;;;5003172;28;20486;-81
2022/02/14 10:51:34;;;;;;;8.73;3.40;;;9.50;1.00;;;;;;5002007;28;20473;-82
2022/02/14 10:54:04;;;;;;;11.73;3.83;;;9.60;1.00;;;;;;5001811;28;20499;-82
2022/02/14 10:56:39;;;;;;;7.70;4.10;;;9.70;1.00;;;;;;5001652;28;20455;-82
2022/02/14 10:59:16;;;;;;;5.33;3.80;;;9.70;1.00;;;;;;5005814;28;20487;-81
2022/02/14 11:01:44;;;;;;;3.70;3.23;;;9.70;1.00;;;;;;5005172;28;20454;-81
2022/02/14 11:04:10;;;;;;;3.87;3.40;;;9.80;1.00;;;;;;5004271;28;20881;-82
2022/02/14 11:06:38;;;;;;;4.43;3.20;;;9.80;1.00;;;;;;5005700;28;20453;-82
2022/02/14 11:09:07;;;;;;;5.40;4.00;;;9.80;1.00;;;;;;5011336;28;20439;-80
2022/02/14 11:11:37;;;;;;;5.87;3.70;;;10.00;1.00;;;;;;5018775;28;20440;-81
2022/02/14 11:14:06;;;;;;;8.33;4.13;;;10.00;1.00;;;;;;5019183;28;20499;-80
2022/02/14 11:16:38;;;;;;;7.00;3.10;;;10.00;1.00;;;;;;5019487;28;20450;-80
2022/02/14 11:19:09;;;;;;;4.63;3.60;;;10.10;1.00;;;;;;5018631;28;20493;-79
2022/02/14 11:21:36;;;;;;;7.13;3.20;;;10.50;1.00;;;;;;5013460;28;20433;-81
2022/02/14 11:24:27;;;;;;;4.83;3.87;;;10.20;1.00;;;;;;5008158;28;20839;-81
2022/02/14 11:27:02;;;;;;;7.50;3.40;;;10.20;1.00;;;;;;5006639;28;20431;-82
2022/02/14 11:29:51;;;;;;;3.53;3.23;;;10.30;1.00;;;;;;5005829;28;20473;-82
2022/02/14 11:32:22;;;;;;;3.33;2.80;;;10.40;1.00;;;;;;5006460;28;20510;-82
2022/02/14 11:35:01;;;;;;;8.23;3.83;;;10.40;1.00;;;;;;5003395;28;20949;-82
2022/02/14 11:37:54;;;;;;;4.13;3.73;;;10.40;1.00;;;;;;5004495;28;20811;-82
2022/02/14 11:40:36;;;;;;;4.70;3.60;;;10.40;1.00;;;;;;5004097;28;20445;-81
2022/02/14 11:43:11;;;;;;;3.47;3.10;;;10.40;1.00;;;;;;5002514;28;20541;-81
2022/02/14 11:45:39;;;;;;;4.93;4.43;;;10.50;1.00;;;;;;5002559;28;20465;-80
2022/02/14 11:48:26;;;;;;;5.63;4.33;;;10.50;1.00;;;;;;5003015;28;20541;-82
2022/02/14 11:51:07;;;;;;;6.67;5.23;;;10.40;1.00;;;;;;5003031;28;20455;-81
2022/02/14 11:53:37;;;;;;;7.30;4.67;;;10.50;1.00;;;;;;5003476;28;20537;-81
2022/02/14 11:56:31;;;;;;;3.97;3.67;;;10.60;1.00;;;;;;5001362;28;20481;-82
2022/02/14 11:59:03;;;;;;;4.57;3.57;;;10.60;1.00;;;;;;4992120;28;20529;-81
2022/02/14 12:01:30;;;;;;;4.37;3.57;;;10.70;1.00;;;;;;5001241;28;20430;-80
2022/02/14 12:04:30;;;;;;;4.90;3.50;;;10.70;1.00;;;;;;5002945;28;20441;-80
2022/02/14 12:07:24;;;;;;;5.27;3.80;;;10.80;1.00;;;;;;5006168;28;20440;-80
2022/02/14 12:10:20;;;;;;;4.80;3.13;;;10.80;1.00;;;;;;5007117;28;20527;-80
2022/02/14 12:13:13;;;;;;;3.80;3.40;;;10.80;1.00;;;;;;5012351;28;20475;-82
2022/02/14 12:21:14;;;;;;;7.83;4.73;;;10.90;1.00;;;;;;5013079;28;20410;-82
2022/02/14 12:23:43;;;;;;;3.80;3.50;;;11.00;1.00;;;;;;5010797;28;20452;-81
2022/02/14 12:26:12;;;;;;;4.47;3.77;;;11.00;1.00;;;;;;5003534;28;20454;-82
2022/02/14 12:28:45;;;;;;;10.60;5.40;;;11.00;99.90;;;;;;5002601;28;20533;-82
2022/02/14 12:31:12;;;;;;;9.03;6.43;;;11.10;56.40;;;;;;5003228;28;20912;-82
2022/02/14 12:33:39;;;;;;;11.97;4.10;;;11.10;21.30;;;;;;5009245;28;20511;-81
2022/02/14 12:36:08;;;;;;;6.20;3.97;;;11.00;17.20;;;;;;5003080;28;20417;-82
2022/02/14 12:38:36;;;;;;;9.03;4.10;;;11.10;5.70;;;;;;5016705;28;20459;-80
2022/02/14 12:41:05;;;;;;;8.03;5.30;;;10.60;1.40;;;;;;5017032;28;20439;-80
2022/02/14 12:43:36;;;;;;;5.30;3.60;;;11.70;3.20;;;;;;5017198;28;20485;-80
2022/02/14 12:46:06;;;;;;;6.90;3.40;;;11.10;1.00;;;;;;5015040;28;20568;-81
2022/02/14 12:48:35;;;;;;;7.23;4.50;;;11.30;13.80;;;;;;5003015;28;20415;-82
2022/02/14 12:51:02;;;;;;;7.00;4.07;;;11.40;21.70;;;;;;5000029;28;21021;-81
2022/02/14 12:53:29;;;;;;;4.50;4.10;;;11.00;16.20;;;;;;4999882;28;20464;-81
2022/02/14 12:56:00;;;;;;;4.90;3.50;;;11.30;50.60;;;;;;5000942;28;20441;-82
2022/02/14 12:58:26;;;;;;;8.33;5.20;;;11.20;44.10;;;;;;5006816;28;20455;-82
2022/02/14 13:01:04;;;;;;;7.43;5.00;;;12.00;62.70;;;;;;5006318;28;20448;-82
2022/02/14 13:03:31;;;;;;;4.13;3.77;;;11.00;96.70;;;;;;5009280;28;20475;-82
2022/02/14 13:05:58;;;;;;;6.63;3.27;;;11.50;99.50;;;;;;5007359;28;20451;-81
2022/02/14 13:08:26;;;;;;;4.17;3.77;;;11.60;92.70;;;;;;5009267;28;20475;-81
2022/02/14 13:10:54;;;;;;;7.33;4.50;;;11.60;99.90;;;;;;5009310;28;20414;-81
2022/02/14 13:13:33;;;;;;;6.67;4.20;;;11.60;99.90;;;;;;5003767;28;20471;-81
2022/02/14 13:16:02;;;;;;;5.93;3.60;;;11.40;99.90;;;;;;5002477;28;20504;-80
2022/02/14 13:18:41;;;;;;;6.10;3.77;;;11.70;99.90;;;;;;5004047;28;20422;-80
2022/02/14 13:21:09;;;;;;;4.40;3.53;;;11.50;99.90;;;;;;5002211;28;20460;-81
2022/02/14 13:23:35;;;;;;;5.97;3.77;;;11.90;99.90;;;;;;5003294;28;20501;-80
2022/02/14 13:26:03;;;;;;;4.83;3.80;;;11.50;99.90;;;;;;5003099;28;20430;-80
2022/02/14 13:28:29;;;;;;;3.57;3.27;;;11.70;99.90;;;;;;5003140;28;20449;-82
2022/02/14 13:30:56;;;;;;;8.13;4.40;;;11.70;99.90;;;;;;5003862;28;20487;-82
2022/02/14 13:33:24;;;;;;;11.03;6.20;;;11.70;99.90;;;;;;5004605;28;20479;-82
2022/02/14 13:35:59;;;;;;;4.73;4.33;;;12.00;99.90;;;;;;5006301;28;20503;-81
2022/02/14 13:38:34;;;;;;;8.53;4.73;;;11.70;99.90;;;;;;5005811;28;20530;-81
2022/02/14 13:41:03;;;;;;;8.40;3.70;;;11.80;99.90;;;;;;5005444;28;20800;-81
2022/02/14 13:43:33;;;;;;;5.00;4.50;;;11.80;99.90;;;;;;5006213;28;20466;-80
2022/02/14 13:46:02;;;;;;;6.27;4.50;;;11.80;99.90;;;;;;5006965;28;20455;-82
2022/02/14 13:48:31;;;;;;;7.30;4.60;;;11.70;99.90;;;;;;5007420;28;20521;-80
2022/02/14 13:51:00;;;;;;;12.83;5.07;;;11.80;99.90;;;;;;5006713;28;20507;-81
2022/02/14 13:53:30;;;;;;;7.47;3.90;;;11.40;99.90;;;;;;5006806;28;20532;-80
2022/02/14 13:56:04;;;;;;;4.57;3.00;;;11.90;99.90;;;;;;5006899;28;20438;-81
2022/02/14 13:58:32;;;;;;;5.50;3.57;;;11.90;99.90;;;;;;5004048;28;20483;-82
2022/02/14 14:00:59;;;;;;;5.00;3.80;;;11.20;99.90;;;;;;5005211;28;20544;-82
2022/02/14 14:03:27;;;;;;;3.90;2.80;;;10.70;99.90;;;;;;5004129;28;20482;-82
2022/02/14 14:05:54;;;;;;;6.87;3.70;;;11.90;99.90;;;;;;5004343;28;20491;-82
2022/02/14 14:08:37;;;;;;;5.00;2.90;;;11.80;99.90;;;;;;5003862;28;20430;-82
2022/02/14 14:11:04;;;;;;;5.43;4.40;;;11.70;98.20;;;;;;5003506;28;20542;-83
2022/02/14 14:13:42;;;;;;;4.50;3.37;;;11.90;99.90;;;;;;5002749;28;20451;-82
2022/02/14 14:16:09;;;;;;;4.00;3.70;;;12.00;99.90;;;;;;5002601;28;20410;-82
2022/02/14 14:18:36;;;;;;;3.70;3.40;;;11.90;96.20;;;;;;5003236;28;20423;-82
2022/02/14 14:21:08;;;;;;;4.77;4.37;;;11.80;95.70;;;;;;5003647;28;20452;-82
2022/02/14 14:23:37;;;;;;;7.87;3.60;;;11.90;90.20;;;;;;5003996;28;20523;-82
2022/02/14 14:26:04;;;;;;;4.93;3.67;;;11.90;66.20;;;;;;5013803;28;20441;-82
2022/02/14 14:28:32;;;;;;;5.73;3.33;;;12.00;50.90;;;;;;5014031;28;20955;-80
2022/02/14 14:30:58;;;;;;;7.20;3.93;;;11.90;73.40;;;;;;5013233;28;20970;-83
2022/02/14 14:33:25;;;;;;;4.03;3.63;;;12.10;62.10;;;;;;5005864;28;20479;-82
2022/02/14 14:35:52;;;;;;;4.53;3.60;;;11.80;99.90;;;;;;5003365;28;20458;-84
2022/02/14 14:38:19;;;;;;;4.20;3.77;;;11.80;94.10;;;;;;5002612;28;20423;-81
2022/02/14 14:40:47;;;;;;;4.90;3.93;;;11.60;92.60;;;;;;5002322;28;20445;-82
2022/02/14 14:43:14;;;;;;;7.70;4.90;;;11.80;99.90;;;;;;5001825;28;20496;-82
2022/02/14 14:45:41;;;;;;;5.87;4.07;;;11.90;69.20;;;;;;5000966;28;20468;-82
2022/02/14 14:48:07;;;;;;;5.43;3.63;;;11.80;83.70;;;;;;5001517;28;20448;-82
2022/02/14 14:50:34;;;;;;;5.53;4.13;;;11.70;91.20;;;;;;5003671;28;20495;-82
2022/02/14 14:53:02;;;;;;;8.60;5.47;;;11.80;97.80;;;;;;5014162;28;20453;-82
2022/02/14 14:55:29;;;;;;;6.00;4.70;;;11.70;91.60;;;;;;5017361;28;20471;-83
2022/02/14 14:57:57;;;;;;;6.43;5.00;;;12.00;89.80;;;;;;5018892;28;20436;-83
2022/02/14 15:00:24;;;;;;;8.70;4.77;;;11.80;94.80;;;;;;5015872;28;20464;-82
2022/02/14 15:02:51;;;;;;;5.53;3.47;;;11.70;99.90;;;;;;5016762;28;20460;-82
2022/02/14 15:05:18;;;;;;;6.60;4.30;;;11.80;99.90;;;;;;5014751;28;20445;-83
2022/02/14 15:07:45;;;;;;;6.40;4.13;;;12.20;99.90;;;;;;5015084;28;20444;-81
2022/02/14 15:10:12;;;;;;;19.53;4.83;;;11.20;99.90;;;;;;5013563;28;20495;-81
2022/02/14 15:12:40;;;;;;;6.60;5.90;;;11.50;99.90;;;;;;5009641;28;20464;-83
2022/02/14 15:15:09;;;;;;;10.37;4.57;;;11.60;99.90;;;;;;5003733;28;20571;-83
2022/02/14 15:17:37;;;;;;;4.50;4.10;;;11.60;99.90;;;;;;5003024;28;20444;-84
2022/02/14 15:20:05;;;;;;;9.60;6.70;;;11.50;99.90;;;;;;5007760;28;20419;-81
2022/02/14 15:22:32;;;;;;;5.93;5.30;;;11.50;99.90;;;;;;5003627;28;20484;-81
2022/02/14 15:24:58;;;;;;;6.37;4.23;;;11.40;99.90;;;;;;5000397;28;20478;-82
2022/02/14 15:27:26;;;;;;;6.13;5.00;;;11.50;99.90;;;;;;5002139;28;20452;-83
2022/02/14 15:29:54;;;;;;;9.53;3.80;;;10.50;99.90;;;;;;5000557;28;20999;-82
2022/02/14 15:32:23;;;;;;;10.77;4.30;;;11.50;99.90;;;;;;4999823;28;20476;-82
2022/02/14 15:34:50;;;;;;;5.70;5.10;;;11.60;99.90;;;;;;5008926;28;20449;-82
2022/02/14 15:37:17;;;;;;;13.43;6.07;;;11.50;99.90;;;;;;5010894;28;20458;-82
2022/02/14 15:39:43;;;;;;;5.40;4.43;;;11.30;99.90;;;;;;5003941;28;20448;-82
2022/02/14 15:42:10;;;;;;;13.67;6.33;;;11.30;99.90;;;;;;5013601;28;20462;-79
2022/02/14 15:44:37;;;;;;;8.53;5.30;;;11.10;99.90;;;;;;5015573;28;20423;-82
2022/02/14 15:47:07;;;;;;;6.70;4.33;;;10.70;99.90;;;;;;5017797;28;20526;-81
2022/02/14 15:49:37;;;;;;;3.40;3.20;;;11.30;99.90;;;;;;5014932;28;20448;-79
2022/02/14 15:52:04;;;;;;;10.83;4.97;;;11.10;99.90;;;;;;5002254;28;20539;-82
2022/02/14 15:54:31;;;;;;;4.10;3.70;;;11.20;99.90;;;;;;5001875;28;20453;-82
2022/02/14 15:56:58;;;;;;;5.00;3.03;;;11.10;99.90;;;;;;5000902;28;20480;-82
2022/02/14 15:59:24;;;;;;;9.50;4.07;;;10.60;99.90;;;;;;5001917;28;20456;-82
2022/02/14 16:01:51;;;;;;;4.43;4.07;;;10.80;99.60;;;;;;5004327;28;20448;-82